Kingston, Idaho
Current Conditions -  °F | °C
As of 7:20 PM on Thursday 18 Dec 2014 (Local Time) from KMLP Reporting Station
Moderate Fog Moderate Fog  
Wind Chill: 25°   Ceiling: 100
Heat Index: 30°   Visibility: 0.25mi
Dew Point: 28°   Wind: 5mph
Humidity: 92%   Direction: NA
Pressure: 29.91"   Gusts: NA
Location:  47.55°N, 116.27°W
Report Text: KMLP 190320Z AUTO VRB04KT 1/4SM FZFG VV001 M01/M02 A2991 RMK AO2 T10111022
Loading
Personal Weather Stations






























Interactive Weather Map New forecast layout! Learn more

10-Day Weather Forecast

Advertisements
Track Severe Weather on mobile